sensor_id;sensor_type;location;lat;lon;timestamp;pressure;altitude;pressure_sealevel;temperature;humidity
52343;BME280;38277;51.972;4.624;2023-02-19T00:04:22;102000.0;;;10.9;94.5
52343;BME280;38277;51.972;4.624;2023-02-19T00:09:09;101990.0;;;10.9;94.0
52343;BME280;38277;51.972;4.624;2023-02-19T00:13:34;101990.0;;;10.9;93.5
52343;BME280;38277;51.972;4.624;2023-02-19T00:18:08;101990.0;;;10.9;93.0
52343;BME280;38277;51.972;4.624;2023-02-19T00:22:32;101990.0;;;10.9;92.5
52343;BME280;38277;51.972;4.624;2023-02-19T00:31:33;101980.0;;;11.0;91.5
52343;BME280;38277;51.972;4.624;2023-02-19T00:36:07;102000.0;;;11.0;91.0
52343;BME280;38277;51.972;4.624;2023-02-19T00:40:15;102000.0;;;11.1;90.5
52343;BME280;38277;51.972;4.624;2023-02-19T00:45:08;102000.0;;;11.1;90.0
52343;BME280;38277;51.972;4.624;2023-02-19T00:49:41;102010.0;;;11.1;89.5
52343;BME280;38277;51.972;4.624;2023-02-19T00:53:53;102010.0;;;11.2;89.0
52343;BME280;38277;51.972;4.624;2023-02-19T00:58:40;102010.0;;;11.2;88.5
52343;BME280;38277;51.972;4.624;2023-02-19T01:07:23;102020.0;;;11.3;88.0
52343;BME280;38277;51.972;4.624;2023-02-19T01:11:43;102020.0;;;11.3;87.5
52343;BME280;38277;51.972;4.624;2023-02-19T01:16:27;102010.0;;;11.3;87.0
52343;BME280;38277;51.972;4.624;2023-02-19T01:20:45;102020.0;;;11.4;87.0
52343;BME280;38277;51.972;4.624;2023-02-19T01:25:40;102020.0;;;11.4;87.0
52343;BME280;38277;51.972;4.624;2023-02-19T01:29:51;102030.0;;;11.4;86.5
52343;BME280;38277;51.972;4.624;2023-02-19T01:34:39;102020.0;;;11.4;87.0
52343;BME280;38277;51.972;4.624;2023-02-19T01:39:05;102020.0;;;11.5;86.5
52343;BME280;38277;51.972;4.624;2023-02-19T01:43:30;102030.0;;;11.5;86.0
52343;BME280;38277;51.972;4.624;2023-02-19T01:47:57;102030.0;;;11.5;86.0
52343;BME280;38277;51.972;4.624;2023-02-19T01:52:19;102020.0;;;11.6;86.0
52343;BME280;38277;51.972;4.624;2023-02-19T01:57:03;102030.0;;;11.6;85.0
52343;BME280;38277;51.972;4.624;2023-02-19T02:01:27;102030.0;;;11.6;84.0
52343;BME280;38277;51.972;4.624;2023-02-19T02:06:20;102030.0;;;11.6;83.5
52343;BME280;38277;51.972;4.624;2023-02-19T02:10:27;102040.0;;;11.6;83.5
52343;BME280;38277;51.972;4.624;2023-02-19T02:15:07;102040.0;;;11.6;83.5
52343;BME280;38277;51.972;4.624;2023-02-19T02:20:01;102040.0;;;11.6;83.5
52343;BME280;38277;51.972;4.624;2023-02-19T02:26:07;102040.0;;;11.7;83.0
52343;BME280;38277;51.972;4.624;2023-02-19T02:33:20;102050.0;;;11.7;82.0
52343;BME280;38277;51.972;4.624;2023-02-19T02:37:34;102040.0;;;11.7;81.5
52343;BME280;38277;51.972;4.624;2023-02-19T02:41:49;102050.0;;;11.7;82.0
52343;BME280;38277;51.972;4.624;2023-02-19T02:46:33;102050.0;;;11.7;81.5
52343;BME280;38277;51.972;4.624;2023-02-19T02:50:51;102060.0;;;11.7;81.5
52343;BME280;38277;51.972;4.624;2023-02-19T02:55:34;102060.0;;;11.7;81.5
52343;BME280;38277;51.972;4.624;2023-02-19T03:04:20;102070.0;;;11.6;81.5
52343;BME280;38277;51.972;4.624;2023-02-19T03:08:51;102070.0;;;11.6;82.0
52343;BME280;38277;51.972;4.624;2023-02-19T03:13:38;102080.0;;;11.5;82.0
52343;BME280;38277;51.972;4.624;2023-02-19T03:18:04;102080.0;;;11.5;82.5
52343;BME280;38277;51.972;4.624;2023-02-19T03:22:41;102080.0;;;11.4;82.5
52343;BME280;38277;51.972;4.624;2023-02-19T03:26:58;102080.0;;;11.4;83.5
52343;BME280;38277;51.972;4.624;2023-02-19T03:31:37;102090.0;;;11.2;84.5
52343;BME280;38277;51.972;4.624;2023-02-19T03:35:48;102100.0;;;11.1;85.5
52343;BME280;38277;51.972;4.624;2023-02-19T03:40:29;102100.0;;;11.0;86.0
52343;BME280;38277;51.972;4.624;2023-02-19T03:45:10;102090.0;;;11.0;86.5
52343;BME280;38277;51.972;4.624;2023-02-19T03:49:42;102110.0;;;11.0;86.0
52343;BME280;38277;51.972;4.624;2023-02-19T03:54:11;102110.0;;;11.0;86.0
52343;BME280;38277;51.972;4.624;2023-02-19T03:58:40;102130.0;;;11.1;85.5
52343;BME280;38277;51.972;4.624;2023-02-19T04:03:05;102130.0;;;11.1;85.5
52343;BME280;38277;51.972;4.624;2023-02-19T04:07:35;102130.0;;;11.1;85.0
52343;BME280;38277;51.972;4.624;2023-02-19T04:16:41;102140.0;;;11.0;85.0
52343;BME280;38277;51.972;4.624;2023-02-19T04:21:10;102140.0;;;11.0;85.0
52343;BME280;38277;51.972;4.624;2023-02-19T04:25:22;102170.0;;;11.0;85.5
52343;BME280;38277;51.972;4.624;2023-02-19T04:34:17;102160.0;;;10.9;86.5
52343;BME280;38277;51.972;4.624;2023-02-19T04:43:25;102180.0;;;10.7;88.0
52343;BME280;38277;51.972;4.624;2023-02-19T04:47:49;102200.0;;;10.7;88.5
52343;BME280;38277;51.972;4.624;2023-02-19T04:52:28;102200.0;;;10.6;89.0
52343;BME280;38277;51.972;4.624;2023-02-19T04:57:08;102210.0;;;10.6;89.0
52343;BME280;38277;51.972;4.624;2023-02-19T05:01:36;102210.0;;;10.6;88.5
52343;BME280;38277;51.972;4.624;2023-02-19T05:10:35;102250.0;;;10.7;87.5
52343;BME280;38277;51.972;4.624;2023-02-19T05:19:33;102240.0;;;10.8;86.5
52343;BME280;38277;51.972;4.624;2023-02-19T05:23:56;102250.0;;;10.8;86.5
52343;BME280;38277;51.972;4.624;2023-02-19T05:28:39;102260.0;;;10.8;86.5
52343;BME280;38277;51.972;4.624;2023-02-19T05:33:05;102270.0;;;10.7;86.5
52343;BME280;38277;51.972;4.624;2023-02-19T05:37:20;102250.0;;;10.6;87.5
52343;BME280;38277;51.972;4.624;2023-02-19T05:41:50;102240.0;;;10.5;88.0
52343;BME280;38277;51.972;4.624;2023-02-19T05:46:37;102240.0;;;10.5;88.5
52343;BME280;38277;51.972;4.624;2023-02-19T05:51:10;102250.0;;;10.5;88.5
52343;BME280;38277;51.972;4.624;2023-02-19T05:55:34;102250.0;;;10.5;89.0
52343;BME280;38277;51.972;4.624;2023-02-19T05:59:48;102260.0;;;10.5;89.5
52343;BME280;38277;51.972;4.624;2023-02-19T06:04:18;102270.0;;;10.4;89.5
52343;BME280;38277;51.972;4.624;2023-02-19T06:08:43;102280.0;;;10.4;90.0
52343;BME280;38277;51.972;4.624;2023-02-19T06:13:12;102280.0;;;10.4;90.5
52343;BME280;38277;51.972;4.624;2023-02-19T06:17:51;102280.0;;;10.3;90.5
52343;BME280;38277;51.972;4.624;2023-02-19T06:22:31;102290.0;;;10.3;91.0
52343;BME280;38277;51.972;4.624;2023-02-19T06:27:10;102290.0;;;10.3;91.0
52343;BME280;38277;51.972;4.624;2023-02-19T06:31:33;102300.0;;;10.3;91.0
52343;BME280;38277;51.972;4.624;2023-02-19T06:35:50;102310.0;;;10.3;91.0
52343;BME280;38277;51.972;4.624;2023-02-19T06:44:48;102310.0;;;10.3;91.0
52343;BME280;38277;51.972;4.624;2023-02-19T06:49:21;102320.0;;;10.4;91.0
52343;BME280;38277;51.972;4.624;2023-02-19T06:53:49;102320.0;;;10.4;91.0
52343;BME280;38277;51.972;4.624;2023-02-19T06:58:39;102330.0;;;10.4;90.5
52343;BME280;38277;51.972;4.624;2023-02-19T07:02:43;102330.0;;;10.5;90.0
52343;BME280;38277;51.972;4.624;2023-02-19T07:07:36;102340.0;;;10.4;90.0
52343;BME280;38277;51.972;4.624;2023-02-19T07:12:02;102360.0;;;10.5;90.0
52343;BME280;38277;51.972;4.624;2023-02-19T07:20:52;102380.0;;;10.4;90.5
52343;BME280;38277;51.972;4.624;2023-02-19T07:25:18;102380.0;;;10.4;90.5
52343;BME280;38277;51.972;4.624;2023-02-19T07:30:11;102390.0;;;10.4;90.5
52343;BME280;38277;51.972;4.624;2023-02-19T07:34:40;102400.0;;;10.4;91.0
52343;BME280;38277;51.972;4.624;2023-02-19T07:39:39;102400.0;;;10.3;91.5
52343;BME280;38277;51.972;4.624;2023-02-19T07:43:40;102410.0;;;10.3;91.5
52343;BME280;38277;51.972;4.624;2023-02-19T07:47:59;102420.0;;;10.3;92.0
52343;BME280;38277;51.972;4.624;2023-02-19T07:52:14;102440.0;;;10.2;92.0
52343;BME280;38277;51.972;4.624;2023-02-19T07:57:57;102440.0;;;10.3;92.0
52343;BME280;38277;51.972;4.624;2023-02-19T08:01:26;102450.0;;;10.3;92.0
52343;BME280;38277;51.972;4.624;2023-02-19T08:05:43;102450.0;;;10.2;92.0
52343;BME280;38277;51.972;4.624;2023-02-19T08:10:59;102460.0;;;10.2;92.0
52343;BME280;38277;51.972;4.624;2023-02-19T08:15:03;102460.0;;;10.3;92.0
52343;BME280;38277;51.972;4.624;2023-02-19T08:19:20;102470.0;;;10.3;92.0
52343;BME280;38277;51.972;4.624;2023-02-19T08:23:47;102470.0;;;10.3;92.0
52343;BME280;38277;51.972;4.624;2023-02-19T08:29:16;102470.0;;;10.3;91.5
52343;BME280;38277;51.972;4.624;2023-02-19T08:32:51;102490.0;;;10.3;91.5
52343;BME280;38277;51.972;4.624;2023-02-19T08:37:25;102480.0;;;10.3;91.5
52343;BME280;38277;51.972;4.624;2023-02-19T08:41:49;102500.0;;;10.4;91.0
52343;BME280;38277;51.972;4.624;2023-02-19T08:47:14;102490.0;;;10.4;91.0
52343;BME280;38277;51.972;4.624;2023-02-19T08:51:02;102490.0;;;10.5;90.5
52343;BME280;38277;51.972;4.624;2023-02-19T08:55:39;102490.0;;;10.6;90.0
52343;BME280;38277;51.972;4.624;2023-02-19T08:59:43;102490.0;;;10.6;89.5
52343;BME280;38277;51.972;4.624;2023-02-19T09:04:23;102480.0;;;10.7;89.5
52343;BME280;38277;51.972;4.624;2023-02-19T09:13:39;102500.0;;;10.8;87.5
52343;BME280;38277;51.972;4.624;2023-02-19T09:17:57;102510.0;;;10.9;87.0
52343;BME280;38277;51.972;4.624;2023-02-19T09:22:34;102510.0;;;10.9;86.0
52343;BME280;38277;51.972;4.624;2023-02-19T09:26:56;102510.0;;;10.9;85.0
52343;BME280;38277;51.972;4.624;2023-02-19T09:31:16;102530.0;;;11.0;85.0
52343;BME280;38277;51.972;4.624;2023-02-19T09:36:06;102540.0;;;11.0;83.5
52343;BME280;38277;51.972;4.624;2023-02-19T09:40:14;102560.0;;;11.0;83.0
52343;BME280;38277;51.972;4.624;2023-02-19T09:49:18;102570.0;;;11.2;82.0
52343;BME280;38277;51.972;4.624;2023-02-19T09:54:11;102580.0;;;11.3;80.5
52343;BME280;38277;51.972;4.624;2023-02-19T09:59:30;102580.0;;;11.3;79.5
52343;BME280;38277;51.972;4.624;2023-02-19T10:03:43;102600.0;;;11.4;79.5
52343;BME280;38277;51.972;4.624;2023-02-19T10:08:20;102610.0;;;11.4;77.5
52343;BME280;38277;51.972;4.624;2023-02-19T10:12:02;102600.0;;;11.3;76.0
52343;BME280;38277;51.972;4.624;2023-02-19T10:16:31;102600.0;;;11.2;75.0
52343;BME280;38277;51.972;4.624;2023-02-19T10:21:00;102610.0;;;11.2;75.0
52343;BME280;38277;51.972;4.624;2023-02-19T10:25:32;102620.0;;;11.1;75.0
52343;BME280;38277;51.972;4.624;2023-02-19T10:29:59;102630.0;;;11.1;75.0
52343;BME280;38277;51.972;4.624;2023-02-19T10:34:24;102630.0;;;11.0;75.5
52343;BME280;38277;51.972;4.624;2023-02-19T10:38:59;102650.0;;;11.0;75.0
52343;BME280;38277;51.972;4.624;2023-02-19T10:44:20;102650.0;;;11.0;75.5
52343;BME280;38277;51.972;4.624;2023-02-19T10:47:45;102640.0;;;10.9;75.5
52343;BME280;38277;51.972;4.624;2023-02-19T10:52:40;102650.0;;;10.8;76.0
52343;BME280;38277;51.972;4.624;2023-02-19T10:56:51;102660.0;;;10.8;76.0
52343;BME280;38277;51.972;4.624;2023-02-19T11:05:53;102650.0;;;10.8;76.0
52343;BME280;38277;51.972;4.624;2023-02-19T11:10:25;102650.0;;;10.8;76.5
52343;BME280;38277;51.972;4.624;2023-02-19T11:15:19;102650.0;;;10.8;77.0
52343;BME280;38277;51.972;4.624;2023-02-19T11:19:40;102640.0;;;10.9;77.0
52343;BME280;38277;51.972;4.624;2023-02-19T11:24:02;102640.0;;;11.1;76.5
52343;BME280;38277;51.972;4.624;2023-02-19T11:28:42;102630.0;;;11.5;76.0
52343;BME280;38277;51.972;4.624;2023-02-19T11:32:45;102640.0;;;11.8;73.0
52343;BME280;38277;51.972;4.624;2023-02-19T11:42:38;102640.0;;;11.9;72.0
52343;BME280;38277;51.972;4.624;2023-02-19T11:46:36;102640.0;;;11.8;72.5
52343;BME280;38277;51.972;4.624;2023-02-19T11:51:52;102630.0;;;11.7;73.5
52343;BME280;38277;51.972;4.624;2023-02-19T11:56:31;102630.0;;;11.8;74.5
52343;BME280;38277;51.972;4.624;2023-02-19T12:00:43;102630.0;;;11.8;74.0
52343;BME280;38277;51.972;4.624;2023-02-19T12:06:03;102640.0;;;11.8;74.0
52343;BME280;38277;51.972;4.624;2023-02-19T12:11:39;102640.0;;;11.8;73.5
52343;BME280;38277;51.972;4.624;2023-02-19T12:16:40;102660.0;;;11.6;74.0
52343;BME280;38277;51.972;4.624;2023-02-19T12:22:04;102650.0;;;11.4;75.0
52343;BME280;38277;51.972;4.624;2023-02-19T12:26:37;102660.0;;;11.4;76.0
52343;BME280;38277;51.972;4.624;2023-02-19T12:32:40;102650.0;;;11.4;76.5
52343;BME280;38277;51.972;4.624;2023-02-19T12:37:55;102660.0;;;11.3;77.5
52343;BME280;38277;51.972;4.624;2023-02-19T12:43:08;102670.0;;;11.2;78.0
52343;BME280;38277;51.972;4.624;2023-02-19T12:44:50;102660.0;;;11.4;79.0
52343;BME280;38277;51.972;4.624;2023-02-19T12:47:33;102670.0;;;11.7;78.5
52343;BME280;38277;51.972;4.624;2023-02-19T12:54:11;102690.0;;;11.8;76.0
52343;BME280;38277;51.972;4.624;2023-02-19T12:58:55;102690.0;;;11.6;76.5
52343;BME280;38277;51.972;4.624;2023-02-19T13:07:27;102720.0;;;11.5;75.0
52343;BME280;38277;51.972;4.624;2023-02-19T13:11:57;102730.0;;;11.4;75.0
52343;BME280;38277;51.972;4.624;2023-02-19T13:16:32;102720.0;;;11.4;75.0
52343;BME280;38277;51.972;4.624;2023-02-19T13:21:14;102730.0;;;11.4;74.5
52343;BME280;38277;51.972;4.624;2023-02-19T13:31:03;102730.0;;;12.0;72.0
52343;BME280;38277;51.972;4.624;2023-02-19T13:36:27;102740.0;;;12.4;68.5
52343;BME280;38277;51.972;4.624;2023-02-19T13:43:37;102750.0;;;13.5;67.0
52343;BME280;38277;51.972;4.624;2023-02-19T13:48:29;102740.0;;;14.8;61.0
52343;BME280;38277;51.972;4.624;2023-02-19T13:52:41;102760.0;;;14.6;60.0
52343;BME280;38277;51.972;4.624;2023-02-19T13:57:35;102770.0;;;13.9;61.5
52343;BME280;38277;51.972;4.624;2023-02-19T14:02:30;102770.0;;;13.4;63.0
52343;BME280;38277;51.972;4.624;2023-02-19T14:06:01;102770.0;;;13.0;64.0
52343;BME280;38277;51.972;4.624;2023-02-19T14:11:00;102780.0;;;12.5;65.0
52343;BME280;38277;51.972;4.624;2023-02-19T14:14:55;102790.0;;;12.1;66.5
52343;BME280;38277;51.972;4.624;2023-02-19T14:19:46;102780.0;;;11.9;68.0
52343;BME280;38277;51.972;4.624;2023-02-19T14:25:08;102780.0;;;12.1;67.0
52343;BME280;38277;51.972;4.624;2023-02-19T14:29:01;102780.0;;;11.9;67.0
52343;BME280;38277;51.972;4.624;2023-02-19T14:33:14;102770.0;;;11.7;67.5
52343;BME280;38277;51.972;4.624;2023-02-19T14:37:32;102770.0;;;11.5;68.5
52343;BME280;38277;51.972;4.624;2023-02-19T14:41:53;102770.0;;;11.7;69.5
52343;BME280;38277;51.972;4.624;2023-02-19T14:47:14;102790.0;;;12.1;67.5
52343;BME280;38277;51.972;4.624;2023-02-19T14:50:49;102780.0;;;12.1;66.0
52343;BME280;38277;51.972;4.624;2023-02-19T14:55:41;102770.0;;;12.0;66.5
52343;BME280;38277;51.972;4.624;2023-02-19T15:04:34;102750.0;;;11.4;67.0
52343;BME280;38277;51.972;4.624;2023-02-19T15:08:48;102760.0;;;11.1;68.5
52343;BME280;38277;51.972;4.624;2023-02-19T15:13:26;102780.0;;;10.9;69.5
52343;BME280;38277;51.972;4.624;2023-02-19T15:17:56;102800.0;;;10.9;71.0
52343;BME280;38277;51.972;4.624;2023-02-19T15:22:31;102790.0;;;11.1;72.0
52343;BME280;38277;51.972;4.624;2023-02-19T15:27:02;102800.0;;;11.3;70.5
52343;BME280;38277;51.972;4.624;2023-02-19T15:31:14;102790.0;;;11.1;70.0
52343;BME280;38277;51.972;4.624;2023-02-19T15:40:25;102810.0;;;10.8;71.0
52343;BME280;38277;51.972;4.624;2023-02-19T15:44:56;102810.0;;;10.8;71.0
52343;BME280;38277;51.972;4.624;2023-02-19T15:49:38;102800.0;;;10.7;70.5
52343;BME280;38277;51.972;4.624;2023-02-19T15:54:53;102800.0;;;10.5;70.5
52343;BME280;38277;51.972;4.624;2023-02-19T15:58:30;102800.0;;;10.3;70.0
52343;BME280;38277;51.972;4.624;2023-02-19T16:02:48;102810.0;;;10.2;70.0
52343;BME280;38277;51.972;4.624;2023-02-19T16:12:17;102830.0;;;10.1;70.0
52343;BME280;38277;51.972;4.624;2023-02-19T16:16:41;102840.0;;;10.0;70.5
52343;BME280;38277;51.972;4.624;2023-02-19T16:20:50;102850.0;;;9.9;70.5
52343;BME280;38277;51.972;4.624;2023-02-19T16:25:26;102840.0;;;9.8;70.5
52343;BME280;38277;51.972;4.624;2023-02-19T16:29:54;102850.0;;;9.7;71.0
52343;BME280;38277;51.972;4.624;2023-02-19T16:34:28;102850.0;;;9.6;72.0
52343;BME280;38277;51.972;4.624;2023-02-19T16:38:57;102850.0;;;9.5;73.0
52343;BME280;38277;51.972;4.624;2023-02-19T16:43:42;102850.0;;;9.3;74.0
52343;BME280;38277;51.972;4.624;2023-02-19T16:47:47;102840.0;;;9.2;74.5
52343;BME280;38277;51.972;4.624;2023-02-19T16:52:17;102820.0;;;9.2;75.5
52343;BME280;38277;51.972;4.624;2023-02-19T16:56:56;102830.0;;;9.1;76.0
52343;BME280;38277;51.972;4.624;2023-02-19T17:01:17;102830.0;;;9.0;76.0
52343;BME280;38277;51.972;4.624;2023-02-19T17:05:53;102860.0;;;8.9;76.5
52343;BME280;38277;51.972;4.624;2023-02-19T17:10:30;102860.0;;;8.7;77.0
52343;BME280;38277;51.972;4.624;2023-02-19T17:14:48;102860.0;;;8.6;77.0
52343;BME280;38277;51.972;4.624;2023-02-19T17:19:23;102870.0;;;8.5;77.5
52343;BME280;38277;51.972;4.624;2023-02-19T17:24:07;102860.0;;;8.4;78.0
52343;BME280;38277;51.972;4.624;2023-02-19T17:28:16;102870.0;;;8.3;78.0
52343;BME280;38277;51.972;4.624;2023-02-19T17:33:02;102890.0;;;8.2;78.5
52343;BME280;38277;51.972;4.624;2023-02-19T17:41:42;102890.0;;;8.1;79.0
52343;BME280;38277;51.972;4.624;2023-02-19T17:46:27;102870.0;;;8.1;79.0
52343;BME280;38277;51.972;4.624;2023-02-19T17:50:59;102880.0;;;8.0;79.0
52343;BME280;38277;51.972;4.624;2023-02-19T17:55:27;102880.0;;;8.0;79.0
52343;BME280;38277;51.972;4.624;2023-02-19T18:00:09;102890.0;;;8.0;79.5
52343;BME280;38277;51.972;4.624;2023-02-19T18:04:40;102880.0;;;8.0;79.5
52343;BME280;38277;51.972;4.624;2023-02-19T18:08:52;102880.0;;;8.0;79.5
52343;BME280;38277;51.972;4.624;2023-02-19T18:18:07;102890.0;;;8.0;80.0
52343;BME280;38277;51.972;4.624;2023-02-19T18:22:16;102890.0;;;8.0;80.0
52343;BME280;38277;51.972;4.624;2023-02-19T18:26:49;102890.0;;;7.9;80.0
52343;BME280;38277;51.972;4.624;2023-02-19T18:31:36;102870.0;;;7.9;80.0
52343;BME280;38277;51.972;4.624;2023-02-19T18:35:59;102850.0;;;7.9;80.0
52343;BME280;38277;51.972;4.624;2023-02-19T18:40:26;102850.0;;;7.9;80.0
52343;BME280;38277;51.972;4.624;2023-02-19T18:45:08;102850.0;;;7.8;80.5
52343;BME280;38277;51.972;4.624;2023-02-19T18:49:28;102850.0;;;7.8;80.5
52343;BME280;38277;51.972;4.624;2023-02-19T18:54:11;102870.0;;;7.8;80.5
52343;BME280;38277;51.972;4.624;2023-02-19T18:58:14;102860.0;;;7.7;80.5
52343;BME280;38277;51.972;4.624;2023-02-19T19:02:58;102880.0;;;7.7;80.5
52343;BME280;38277;51.972;4.624;2023-02-19T19:07:27;102870.0;;;7.7;81.0
52343;BME280;38277;51.972;4.624;2023-02-19T19:11:58;102880.0;;;7.7;81.0
52343;BME280;38277;51.972;4.624;2023-02-19T19:16:21;102880.0;;;7.8;81.0
52343;BME280;38277;51.972;4.624;2023-02-19T19:20:48;102870.0;;;7.8;81.0
52343;BME280;38277;51.972;4.624;2023-02-19T19:25:25;102870.0;;;7.8;81.0
52343;BME280;38277;51.972;4.624;2023-02-19T19:30:00;102880.0;;;7.8;81.0
52343;BME280;38277;51.972;4.624;2023-02-19T19:34:40;102870.0;;;7.8;81.0
52343;BME280;38277;51.972;4.624;2023-02-19T19:43:34;102870.0;;;7.8;81.5
52343;BME280;38277;51.972;4.624;2023-02-19T19:48:04;102870.0;;;7.7;81.5
52343;BME280;38277;51.972;4.624;2023-02-19T19:52:37;102850.0;;;7.7;81.5
52343;BME280;38277;51.972;4.624;2023-02-19T19:56:54;102860.0;;;7.7;82.0
52343;BME280;38277;51.972;4.624;2023-02-19T20:01:15;102860.0;;;7.7;82.5
52343;BME280;38277;51.972;4.624;2023-02-19T20:05:47;102860.0;;;7.8;83.0
52343;BME280;38277;51.972;4.624;2023-02-19T20:10:33;102870.0;;;7.8;83.0
52343;BME280;38277;51.972;4.624;2023-02-19T20:19:31;102860.0;;;7.8;83.5
52343;BME280;38277;51.972;4.624;2023-02-19T20:24:12;102850.0;;;7.7;84.0
52343;BME280;38277;51.972;4.624;2023-02-19T20:28:39;102850.0;;;7.7;84.0
52343;BME280;38277;51.972;4.624;2023-02-19T20:32:50;102840.0;;;7.7;84.5
52343;BME280;38277;51.972;4.624;2023-02-19T20:37:24;102840.0;;;7.6;84.5
52343;BME280;38277;51.972;4.624;2023-02-19T20:41:50;102840.0;;;7.6;85.0
52343;BME280;38277;51.972;4.624;2023-02-19T20:46:39;102840.0;;;7.6;85.0
52343;BME280;38277;51.972;4.624;2023-02-19T20:50:44;102830.0;;;7.6;85.5
52343;BME280;38277;51.972;4.624;2023-02-19T20:55:41;102840.0;;;7.6;85.5
52343;BME280;38277;51.972;4.624;2023-02-19T20:59:42;102830.0;;;7.6;85.5
52343;BME280;38277;51.972;4.624;2023-02-19T21:08:54;102820.0;;;7.5;85.5
52343;BME280;38277;51.972;4.624;2023-02-19T21:13:26;102810.0;;;7.5;85.5
52343;BME280;38277;51.972;4.624;2023-02-19T21:18:09;102800.0;;;7.5;85.5
52343;BME280;38277;51.972;4.624;2023-02-19T21:22:34;102800.0;;;7.5;85.0
52343;BME280;38277;51.972;4.624;2023-02-19T21:26:56;102810.0;;;7.5;85.0
52343;BME280;38277;51.972;4.624;2023-02-19T21:31:37;102820.0;;;7.5;84.5
52343;BME280;38277;51.972;4.624;2023-02-19T21:36:00;102820.0;;;7.6;84.5
52343;BME280;38277;51.972;4.624;2023-02-19T21:40:39;102810.0;;;7.6;84.0
52343;BME280;38277;51.972;4.624;2023-02-19T21:44:47;102810.0;;;7.6;84.0
52343;BME280;38277;51.972;4.624;2023-02-19T21:49:41;102790.0;;;7.6;84.0
52343;BME280;38277;51.972;4.624;2023-02-19T21:53:59;102790.0;;;7.6;83.5
52343;BME280;38277;51.972;4.624;2023-02-19T21:58:29;102780.0;;;7.6;83.5
52343;BME280;38277;51.972;4.624;2023-02-19T22:03:13;102790.0;;;7.6;83.5
52343;BME280;38277;51.972;4.624;2023-02-19T22:07:41;102790.0;;;7.6;83.5
52343;BME280;38277;51.972;4.624;2023-02-19T22:11:58;102790.0;;;7.6;83.5
52343;BME280;38277;51.972;4.624;2023-02-19T22:16:28;102780.0;;;7.6;83.5
52343;BME280;38277;51.972;4.624;2023-02-19T22:20:45;102770.0;;;7.7;83.5
52343;BME280;38277;51.972;4.624;2023-02-19T22:25:41;102780.0;;;7.7;83.5
52343;BME280;38277;51.972;4.624;2023-02-19T22:30:10;102770.0;;;7.8;83.0
52343;BME280;38277;51.972;4.624;2023-02-19T22:34:37;102770.0;;;7.8;83.0
52343;BME280;38277;51.972;4.624;2023-02-19T22:38:47;102760.0;;;7.9;83.0
52343;BME280;38277;51.972;4.624;2023-02-19T22:47:44;102770.0;;;8.1;82.5
52343;BME280;38277;51.972;4.624;2023-02-19T22:52:41;102770.0;;;8.2;82.5
52343;BME280;38277;51.972;4.624;2023-02-19T22:57:09;102750.0;;;8.3;82.0
52343;BME280;38277;51.972;4.624;2023-02-19T23:01:26;102760.0;;;8.4;81.5
52343;BME280;38277;51.972;4.624;2023-02-19T23:05:51;102750.0;;;8.5;81.0
52343;BME280;38277;51.972;4.624;2023-02-19T23:10:20;102750.0;;;8.5;81.0
52343;BME280;38277;51.972;4.624;2023-02-19T23:15:02;102750.0;;;8.5;80.5
52343;BME280;38277;51.972;4.624;2023-02-19T23:24:09;102740.0;;;8.6;80.5
52343;BME280;38277;51.972;4.624;2023-02-19T23:28:28;102750.0;;;8.6;80.5
52343;BME280;38277;51.972;4.624;2023-02-19T23:32:48;102740.0;;;8.5;80.5
52343;BME280;38277;51.972;4.624;2023-02-19T23:37:22;102740.0;;;8.4;81.0
52343;BME280;38277;51.972;4.624;2023-02-19T23:42:28;102730.0;;;8.4;81.0
52343;BME280;38277;51.972;4.624;2023-02-19T23:46:18;102710.0;;;8.3;81.5
52343;BME280;38277;51.972;4.624;2023-02-19T23:51:08;102720.0;;;8.3;81.5
52343;BME280;38277;51.972;4.624;2023-02-19T23:55:32;102710.0;;;8.2;82.0
52343;BME280;38277;51.972;4.624;2023-02-19T23:59:52;102700.0;;;8.2;82.0
